sensor_id;sensor_type;location;lat;lon;timestamp;temperature;humidity
32139;DHT22;18644;48.700;9.210;2023-01-10T00:01:18;8.20;66.50
32139;DHT22;18644;48.700;9.210;2023-01-10T00:03:45;8.20;66.50
32139;DHT22;18644;48.700;9.210;2023-01-10T00:06:12;8.20;66.70
32139;DHT22;18644;48.700;9.210;2023-01-10T00:08:39;8.20;66.80
32139;DHT22;18644;48.700;9.210;2023-01-10T00:11:06;8.20;66.90
32139;DHT22;18644;48.700;9.210;2023-01-10T00:13:47;8.20;66.90
32139;DHT22;18644;48.700;9.210;2023-01-10T00:16:15;8.20;67.00
32139;DHT22;18644;48.700;9.210;2023-01-10T00:18:42;8.20;67.00
32139;DHT22;18644;48.700;9.210;2023-01-10T00:21:09;8.20;67.10
32139;DHT22;18644;48.700;9.210;2023-01-10T00:23:35;8.20;67.10
32139;DHT22;18644;48.700;9.210;2023-01-10T00:26:03;8.20;67.20
32139;DHT22;18644;48.700;9.210;2023-01-10T00:28:30;8.20;67.30
32139;DHT22;18644;48.700;9.210;2023-01-10T00:31:00;8.20;67.30
32139;DHT22;18644;48.700;9.210;2023-01-10T00:33:32;8.20;67.30
32139;DHT22;18644;48.700;9.210;2023-01-10T00:36:00;8.20;67.60
32139;DHT22;18644;48.700;9.210;2023-01-10T00:38:28;8.20;67.00
32139;DHT22;18644;48.700;9.210;2023-01-10T00:40:56;8.20;67.10
32139;DHT22;18644;48.700;9.210;2023-01-10T00:43:22;8.20;67.10
32139;DHT22;18644;48.700;9.210;2023-01-10T00:46:07;8.20;67.20
32139;DHT22;18644;48.700;9.210;2023-01-10T00:48:36;8.20;67.30
32139;DHT22;18644;48.700;9.210;2023-01-10T00:51:04;8.20;67.30
32139;DHT22;18644;48.700;9.210;2023-01-10T00:53:31;8.20;67.40
32139;DHT22;18644;48.700;9.210;2023-01-10T00:55:58;8.20;67.40
32139;DHT22;18644;48.700;9.210;2023-01-10T00:58:25;8.20;67.30
32139;DHT22;18644;48.700;9.210;2023-01-10T01:00:51;8.20;67.40
32139;DHT22;18644;48.700;9.210;2023-01-10T01:03:19;8.20;67.60
32139;DHT22;18644;48.700;9.210;2023-01-10T01:05:57;8.20;67.60
32139;DHT22;18644;48.700;9.210;2023-01-10T01:08:29;8.20;67.60
32139;DHT22;18644;48.700;9.210;2023-01-10T01:10:56;8.30;67.60
32139;DHT22;18644;48.700;9.210;2023-01-10T01:13:23;8.30;67.70
32139;DHT22;18644;48.700;9.210;2023-01-10T01:15:50;8.30;67.60
32139;DHT22;18644;48.700;9.210;2023-01-10T01:18:19;8.30;67.50
32139;DHT22;18644;48.700;9.210;2023-01-10T01:20:49;8.30;67.50
32139;DHT22;18644;48.700;9.210;2023-01-10T01:23:20;8.30;67.40
32139;DHT22;18644;48.700;9.210;2023-01-10T01:25:49;8.30;67.30
32139;DHT22;18644;48.700;9.210;2023-01-10T01:28:17;8.30;67.20
32139;DHT22;18644;48.700;9.210;2023-01-10T01:30:44;8.20;67.20
32139;DHT22;18644;48.700;9.210;2023-01-10T01:33:11;8.20;67.10
32139;DHT22;18644;48.700;9.210;2023-01-10T01:35:41;8.20;67.20
32139;DHT22;18644;48.700;9.210;2023-01-10T01:38:08;8.10;67.20
32139;DHT22;18644;48.700;9.210;2023-01-10T01:40:36;8.10;67.20
32139;DHT22;18644;48.700;9.210;2023-01-10T01:43:20;8.10;67.40
32139;DHT22;18644;48.700;9.210;2023-01-10T01:45:49;8.10;67.60
32139;DHT22;18644;48.700;9.210;2023-01-10T01:48:28;8.10;67.50
32139;DHT22;18644;48.700;9.210;2023-01-10T01:51:01;8.10;67.50
32139;DHT22;18644;48.700;9.210;2023-01-10T01:53:36;8.00;67.40
32139;DHT22;18644;48.700;9.210;2023-01-10T01:56:10;8.00;67.60
32139;DHT22;18644;48.700;9.210;2023-01-10T01:58:44;8.00;67.50
32139;DHT22;18644;48.700;9.210;2023-01-10T02:01:13;8.00;67.60
32139;DHT22;18644;48.700;9.210;2023-01-10T02:03:42;8.00;67.70
32139;DHT22;18644;48.700;9.210;2023-01-10T02:06:12;8.00;67.60
32139;DHT22;18644;48.700;9.210;2023-01-10T02:08:44;7.90;67.70
32139;DHT22;18644;48.700;9.210;2023-01-10T02:11:17;7.90;67.70
32139;DHT22;18644;48.700;9.210;2023-01-10T02:13:45;7.90;67.60
32139;DHT22;18644;48.700;9.210;2023-01-10T02:16:13;7.90;67.60
32139;DHT22;18644;48.700;9.210;2023-01-10T02:18:41;7.90;67.70
32139;DHT22;18644;48.700;9.210;2023-01-10T02:21:26;7.90;67.70
32139;DHT22;18644;48.700;9.210;2023-01-10T02:24:37;7.90;67.80
32139;DHT22;18644;48.700;9.210;2023-01-10T02:27:23;7.90;67.90
32139;DHT22;18644;48.700;9.210;2023-01-10T02:30:18;7.90;67.80
32139;DHT22;18644;48.700;9.210;2023-01-10T02:33:12;7.80;67.80
32139;DHT22;18644;48.700;9.210;2023-01-10T02:35:57;7.80;67.80
32139;DHT22;18644;48.700;9.210;2023-01-10T02:38:39;7.80;68.00
32139;DHT22;18644;48.700;9.210;2023-01-10T02:41:13;7.70;68.00
32139;DHT22;18644;48.700;9.210;2023-01-10T02:43:46;7.80;68.00
32139;DHT22;18644;48.700;9.210;2023-01-10T02:46:20;7.70;68.10
32139;DHT22;18644;48.700;9.210;2023-01-10T02:48:51;7.70;68.30
32139;DHT22;18644;48.700;9.210;2023-01-10T02:51:20;7.70;68.30
32139;DHT22;18644;48.700;9.210;2023-01-10T02:53:52;7.70;68.40
32139;DHT22;18644;48.700;9.210;2023-01-10T03:00:04;7.70;68.40
32139;DHT22;18644;48.700;9.210;2023-01-10T03:02:47;7.70;68.30
32139;DHT22;18644;48.700;9.210;2023-01-10T03:05:34;7.70;68.20
32139;DHT22;18644;48.700;9.210;2023-01-10T03:08:16;7.70;68.30
32139;DHT22;18644;48.700;9.210;2023-01-10T03:10:55;7.60;68.20
32139;DHT22;18644;48.700;9.210;2023-01-10T03:13:26;7.70;68.30
32139;DHT22;18644;48.700;9.210;2023-01-10T03:15:57;7.70;68.30
32139;DHT22;18644;48.700;9.210;2023-01-10T03:18:30;7.70;68.40
32139;DHT22;18644;48.700;9.210;2023-01-10T03:21:02;7.60;68.40
32139;DHT22;18644;48.700;9.210;2023-01-10T03:23:31;7.70;68.40
32139;DHT22;18644;48.700;9.210;2023-01-10T03:26:00;7.70;68.40
32139;DHT22;18644;48.700;9.210;2023-01-10T03:28:30;7.70;69.20
32139;DHT22;18644;48.700;9.210;2023-01-10T03:31:05;7.70;68.40
32139;DHT22;18644;48.700;9.210;2023-01-10T03:33:36;7.70;68.30
32139;DHT22;18644;48.700;9.210;2023-01-10T03:36:10;7.70;68.30
32139;DHT22;18644;48.700;9.210;2023-01-10T03:38:44;7.70;68.30
32139;DHT22;18644;48.700;9.210;2023-01-10T03:41:13;7.80;68.20
32139;DHT22;18644;48.700;9.210;2023-01-10T03:43:46;7.80;68.20
32139;DHT22;18644;48.700;9.210;2023-01-10T03:46:39;7.80;68.00
32139;DHT22;18644;48.700;9.210;2023-01-10T03:49:10;7.80;68.00
32139;DHT22;18644;48.700;9.210;2023-01-10T03:51:39;7.80;68.10
32139;DHT22;18644;48.700;9.210;2023-01-10T03:54:07;7.80;68.10
32139;DHT22;18644;48.700;9.210;2023-01-10T03:56:43;7.80;68.00
32139;DHT22;18644;48.700;9.210;2023-01-10T03:59:11;7.80;68.10
32139;DHT22;18644;48.700;9.210;2023-01-10T04:01:38;7.80;68.10
32139;DHT22;18644;48.700;9.210;2023-01-10T04:04:04;7.80;68.10
32139;DHT22;18644;48.700;9.210;2023-01-10T04:06:31;7.80;68.10
32139;DHT22;18644;48.700;9.210;2023-01-10T04:08:59;7.90;68.10
32139;DHT22;18644;48.700;9.210;2023-01-10T04:11:26;7.90;68.00
32139;DHT22;18644;48.700;9.210;2023-01-10T04:13:53;7.90;67.90
32139;DHT22;18644;48.700;9.210;2023-01-10T04:16:20;7.90;67.80
32139;DHT22;18644;48.700;9.210;2023-01-10T04:18:47;7.90;67.70
32139;DHT22;18644;48.700;9.210;2023-01-10T04:21:14;7.90;67.60
32139;DHT22;18644;48.700;9.210;2023-01-10T04:23:41;7.90;67.60
32139;DHT22;18644;48.700;9.210;2023-01-10T04:26:09;7.90;67.50
32139;DHT22;18644;48.700;9.210;2023-01-10T04:28:36;7.90;67.40
32139;DHT22;18644;48.700;9.210;2023-01-10T04:31:03;7.90;67.40
32139;DHT22;18644;48.700;9.210;2023-01-10T04:33:30;7.80;67.30
32139;DHT22;18644;48.700;9.210;2023-01-10T04:35:57;7.80;67.30
32139;DHT22;18644;48.700;9.210;2023-01-10T04:38:24;7.80;67.30
32139;DHT22;18644;48.700;9.210;2023-01-10T04:40:51;7.80;67.30
32139;DHT22;18644;48.700;9.210;2023-01-10T04:43:20;7.80;67.30
32139;DHT22;18644;48.700;9.210;2023-01-10T04:45:48;7.80;67.30
32139;DHT22;18644;48.700;9.210;2023-01-10T04:48:15;7.70;67.30
32139;DHT22;18644;48.700;9.210;2023-01-10T04:50:42;7.70;67.30
32139;DHT22;18644;48.700;9.210;2023-01-10T04:53:09;7.70;67.30
32139;DHT22;18644;48.700;9.210;2023-01-10T04:55:36;7.70;67.30
32139;DHT22;18644;48.700;9.210;2023-01-10T04:58:03;7.70;67.30
32139;DHT22;18644;48.700;9.210;2023-01-10T05:00:31;7.70;67.30
32139;DHT22;18644;48.700;9.210;2023-01-10T05:02:58;7.70;67.30
32139;DHT22;18644;48.700;9.210;2023-01-10T05:05:25;7.60;67.20
32139;DHT22;18644;48.700;9.210;2023-01-10T05:07:52;7.60;67.20
32139;DHT22;18644;48.700;9.210;2023-01-10T05:10:19;7.60;67.20
32139;DHT22;18644;48.700;9.210;2023-01-10T05:12:46;7.50;67.10
32139;DHT22;18644;48.700;9.210;2023-01-10T05:15:13;7.50;67.00
32139;DHT22;18644;48.700;9.210;2023-01-10T05:17:42;7.50;67.10
32139;DHT22;18644;48.700;9.210;2023-01-10T05:20:10;7.40;67.10
32139;DHT22;18644;48.700;9.210;2023-01-10T05:22:37;7.40;67.00
32139;DHT22;18644;48.700;9.210;2023-01-10T05:25:05;7.40;67.10
32139;DHT22;18644;48.700;9.210;2023-01-10T05:27:32;7.40;67.10
32139;DHT22;18644;48.700;9.210;2023-01-10T05:29:59;7.40;67.10
32139;DHT22;18644;48.700;9.210;2023-01-10T05:32:27;7.30;67.10
32139;DHT22;18644;48.700;9.210;2023-01-10T05:34:56;7.30;67.20
32139;DHT22;18644;48.700;9.210;2023-01-10T05:37:23;7.30;67.20
32139;DHT22;18644;48.700;9.210;2023-01-10T05:39:49;7.30;67.20
32139;DHT22;18644;48.700;9.210;2023-01-10T05:42:16;7.30;67.30
32139;DHT22;18644;48.700;9.210;2023-01-10T05:44:44;7.20;67.40
32139;DHT22;18644;48.700;9.210;2023-01-10T05:47:11;7.30;67.50
32139;DHT22;18644;48.700;9.210;2023-01-10T05:49:37;7.30;67.70
32139;DHT22;18644;48.700;9.210;2023-01-10T05:52:06;7.30;67.70
32139;DHT22;18644;48.700;9.210;2023-01-10T05:54:33;7.30;67.80
32139;DHT22;18644;48.700;9.210;2023-01-10T05:56:59;7.30;67.80
32139;DHT22;18644;48.700;9.210;2023-01-10T05:59:26;7.40;67.80
32139;DHT22;18644;48.700;9.210;2023-01-10T06:01:54;7.40;67.90
32139;DHT22;18644;48.700;9.210;2023-01-10T06:04:21;7.40;67.80
32139;DHT22;18644;48.700;9.210;2023-01-10T06:06:48;7.40;67.80
32139;DHT22;18644;48.700;9.210;2023-01-10T06:09:16;7.40;67.70
32139;DHT22;18644;48.700;9.210;2023-01-10T06:11:43;7.50;67.70
32139;DHT22;18644;48.700;9.210;2023-01-10T06:14:10;7.50;68.40
32139;DHT22;18644;48.700;9.210;2023-01-10T06:16:37;7.50;67.50
32139;DHT22;18644;48.700;9.210;2023-01-10T06:19:04;7.50;67.40
32139;DHT22;18644;48.700;9.210;2023-01-10T06:21:31;7.50;67.30
32139;DHT22;18644;48.700;9.210;2023-01-10T06:23:58;7.60;67.30
32139;DHT22;18644;48.700;9.210;2023-01-10T06:26:26;7.60;67.20
32139;DHT22;18644;48.700;9.210;2023-01-10T06:28:53;7.60;67.20
32139;DHT22;18644;48.700;9.210;2023-01-10T06:31:20;7.60;67.00
32139;DHT22;18644;48.700;9.210;2023-01-10T06:33:49;7.60;66.90
32139;DHT22;18644;48.700;9.210;2023-01-10T06:36:16;7.60;66.90
32139;DHT22;18644;48.700;9.210;2023-01-10T06:38:43;7.60;67.60
32139;DHT22;18644;48.700;9.210;2023-01-10T06:41:11;7.70;66.90
32139;DHT22;18644;48.700;9.210;2023-01-10T06:43:43;7.70;66.80
32139;DHT22;18644;48.700;9.210;2023-01-10T06:46:11;7.70;66.80
32139;DHT22;18644;48.700;9.210;2023-01-10T06:48:38;7.70;66.80
32139;DHT22;18644;48.700;9.210;2023-01-10T06:51:07;7.70;66.80
32139;DHT22;18644;48.700;9.210;2023-01-10T06:53:34;7.70;66.80
32139;DHT22;18644;48.700;9.210;2023-01-10T06:56:01;7.60;66.70
32139;DHT22;18644;48.700;9.210;2023-01-10T06:58:30;7.70;66.70
32139;DHT22;18644;48.700;9.210;2023-01-10T07:01:00;7.60;66.50
32139;DHT22;18644;48.700;9.210;2023-01-10T07:03:27;7.70;66.50
32139;DHT22;18644;48.700;9.210;2023-01-10T07:05:54;7.70;66.40
32139;DHT22;18644;48.700;9.210;2023-01-10T07:08:21;7.70;66.40
32139;DHT22;18644;48.700;9.210;2023-01-10T07:10:48;7.70;66.40
32139;DHT22;18644;48.700;9.210;2023-01-10T07:13:15;7.60;66.30
32139;DHT22;18644;48.700;9.210;2023-01-10T07:15:41;7.60;66.40
32139;DHT22;18644;48.700;9.210;2023-01-10T07:18:10;7.60;66.40
32139;DHT22;18644;48.700;9.210;2023-01-10T07:20:36;7.60;66.40
32139;DHT22;18644;48.700;9.210;2023-01-10T07:23:03;7.60;66.40
32139;DHT22;18644;48.700;9.210;2023-01-10T07:25:30;7.60;66.50
32139;DHT22;18644;48.700;9.210;2023-01-10T07:27:57;7.60;66.60
32139;DHT22;18644;48.700;9.210;2023-01-10T07:30:24;7.60;66.50
32139;DHT22;18644;48.700;9.210;2023-01-10T07:32:52;7.60;66.50
32139;DHT22;18644;48.700;9.210;2023-01-10T07:35:22;7.60;66.50
32139;DHT22;18644;48.700;9.210;2023-01-10T07:37:49;7.60;66.50
32139;DHT22;18644;48.700;9.210;2023-01-10T07:40:17;7.60;66.50
32139;DHT22;18644;48.700;9.210;2023-01-10T07:42:43;7.60;66.40
32139;DHT22;18644;48.700;9.210;2023-01-10T07:45:10;7.70;66.60
32139;DHT22;18644;48.700;9.210;2023-01-10T07:47:37;7.70;66.60
32139;DHT22;18644;48.700;9.210;2023-01-10T07:50:05;7.70;66.50
32139;DHT22;18644;48.700;9.210;2023-01-10T07:52:34;7.70;66.40
32139;DHT22;18644;48.700;9.210;2023-01-10T07:55:03;7.70;66.30
32139;DHT22;18644;48.700;9.210;2023-01-10T07:57:30;7.70;66.30
32139;DHT22;18644;48.700;9.210;2023-01-10T07:59:57;7.70;66.30
32139;DHT22;18644;48.700;9.210;2023-01-10T08:02:24;7.70;66.30
32139;DHT22;18644;48.700;9.210;2023-01-10T08:04:51;7.70;66.30
32139;DHT22;18644;48.700;9.210;2023-01-10T08:07:18;7.80;66.30
32139;DHT22;18644;48.700;9.210;2023-01-10T08:09:46;7.80;66.20
32139;DHT22;18644;48.700;9.210;2023-01-10T08:12:13;7.80;66.20
32139;DHT22;18644;48.700;9.210;2023-01-10T08:14:40;7.80;66.10
32139;DHT22;18644;48.700;9.210;2023-01-10T08:17:06;7.80;66.10
32139;DHT22;18644;48.700;9.210;2023-01-10T08:19:34;7.90;66.20
32139;DHT22;18644;48.700;9.210;2023-01-10T08:22:01;7.90;66.20
32139;DHT22;18644;48.700;9.210;2023-01-10T08:24:28;7.90;66.20
32139;DHT22;18644;48.700;9.210;2023-01-10T08:26:58;7.90;66.20
32139;DHT22;18644;48.700;9.210;2023-01-10T08:29:26;7.90;66.20
32139;DHT22;18644;48.700;9.210;2023-01-10T08:31:53;8.00;66.30
32139;DHT22;18644;48.700;9.210;2023-01-10T08:34:20;8.00;66.10
32139;DHT22;18644;48.700;9.210;2023-01-10T08:36:49;8.00;66.20
32139;DHT22;18644;48.700;9.210;2023-01-10T08:39:16;8.00;66.20
32139;DHT22;18644;48.700;9.210;2023-01-10T08:41:43;8.10;66.30
32139;DHT22;18644;48.700;9.210;2023-01-10T08:44:11;8.10;66.30
32139;DHT22;18644;48.700;9.210;2023-01-10T08:46:40;8.10;66.30
32139;DHT22;18644;48.700;9.210;2023-01-10T08:49:07;8.20;66.20
32139;DHT22;18644;48.700;9.210;2023-01-10T08:51:35;8.20;66.20
32139;DHT22;18644;48.700;9.210;2023-01-10T08:54:02;8.20;66.20
32139;DHT22;18644;48.700;9.210;2023-01-10T08:56:29;8.20;66.10
32139;DHT22;18644;48.700;9.210;2023-01-10T08:58:56;8.20;66.10
32139;DHT22;18644;48.700;9.210;2023-01-10T09:01:24;8.20;66.10
32139;DHT22;18644;48.700;9.210;2023-01-10T09:03:51;8.20;66.10
32139;DHT22;18644;48.700;9.210;2023-01-10T09:06:18;8.30;66.20
32139;DHT22;18644;48.700;9.210;2023-01-10T09:08:45;8.30;66.20
32139;DHT22;18644;48.700;9.210;2023-01-10T09:11:11;8.30;66.20
32139;DHT22;18644;48.700;9.210;2023-01-10T09:13:38;8.30;66.10
32139;DHT22;18644;48.700;9.210;2023-01-10T09:16:07;8.30;66.00
32139;DHT22;18644;48.700;9.210;2023-01-10T09:18:35;8.30;66.00
32139;DHT22;18644;48.700;9.210;2023-01-10T09:21:02;8.30;66.10
32139;DHT22;18644;48.700;9.210;2023-01-10T09:23:29;8.30;66.00
32139;DHT22;18644;48.700;9.210;2023-01-10T09:25:56;8.30;66.00
32139;DHT22;18644;48.700;9.210;2023-01-10T09:28:25;8.40;66.00
32139;DHT22;18644;48.700;9.210;2023-01-10T09:30:52;8.40;66.00
32139;DHT22;18644;48.700;9.210;2023-01-10T09:33:19;8.40;66.00
32139;DHT22;18644;48.700;9.210;2023-01-10T09:35:47;8.40;66.00
32139;DHT22;18644;48.700;9.210;2023-01-10T09:38:17;8.40;66.10
32139;DHT22;18644;48.700;9.210;2023-01-10T09:40:56;8.40;66.10
32139;DHT22;18644;48.700;9.210;2023-01-10T09:43:39;8.40;66.20
32139;DHT22;18644;48.700;9.210;2023-01-10T09:46:14;8.40;66.20
32139;DHT22;18644;48.700;9.210;2023-01-10T09:48:52;8.50;66.40
32139;DHT22;18644;48.700;9.210;2023-01-10T09:51:31;8.50;67.10
32139;DHT22;18644;48.700;9.210;2023-01-10T09:54:04;8.50;66.30
32139;DHT22;18644;48.700;9.210;2023-01-10T09:56:33;8.50;66.40
32139;DHT22;18644;48.700;9.210;2023-01-10T09:59:00;8.50;67.10
32139;DHT22;18644;48.700;9.210;2023-01-10T10:01:32;8.60;66.40
32139;DHT22;18644;48.700;9.210;2023-01-10T10:04:06;8.60;66.50
32139;DHT22;18644;48.700;9.210;2023-01-10T10:06:42;8.60;66.50
32139;DHT22;18644;48.700;9.210;2023-01-10T10:09:12;8.60;66.50
32139;DHT22;18644;48.700;9.210;2023-01-10T10:11:50;8.60;66.40
32139;DHT22;18644;48.700;9.210;2023-01-10T10:14:35;8.70;66.50
32139;DHT22;18644;48.700;9.210;2023-01-10T10:17:21;8.70;66.50
32139;DHT22;18644;48.700;9.210;2023-01-10T10:20:02;8.70;66.60
32139;DHT22;18644;48.700;9.210;2023-01-10T10:22:46;8.70;66.70
32139;DHT22;18644;48.700;9.210;2023-01-10T10:25:25;8.80;66.70
32139;DHT22;18644;48.700;9.210;2023-01-10T10:31:14;8.90;66.70
32139;DHT22;18644;48.700;9.210;2023-01-10T10:33:53;8.90;66.60
32139;DHT22;18644;48.700;9.210;2023-01-10T10:36:28;9.00;66.50
32139;DHT22;18644;48.700;9.210;2023-01-10T10:39:01;9.00;66.40
32139;DHT22;18644;48.700;9.210;2023-01-10T10:41:32;9.00;66.40
32139;DHT22;18644;48.700;9.210;2023-01-10T10:44:04;9.10;66.40
32139;DHT22;18644;48.700;9.210;2023-01-10T10:46:34;9.20;66.40
32139;DHT22;18644;48.700;9.210;2023-01-10T10:49:10;9.20;66.20
32139;DHT22;18644;48.700;9.210;2023-01-10T10:51:43;9.20;66.20
32139;DHT22;18644;48.700;9.210;2023-01-10T10:54:14;9.30;66.20
32139;DHT22;18644;48.700;9.210;2023-01-10T10:56:42;9.30;66.20
32139;DHT22;18644;48.700;9.210;2023-01-10T10:59:11;9.30;66.20
32139;DHT22;18644;48.700;9.210;2023-01-10T11:01:44;9.40;66.20
32139;DHT22;18644;48.700;9.210;2023-01-10T11:04:15;9.40;66.20
32139;DHT22;18644;48.700;9.210;2023-01-10T11:06:44;9.50;66.20
32139;DHT22;18644;48.700;9.210;2023-01-10T11:09:17;9.50;66.10
32139;DHT22;18644;48.700;9.210;2023-01-10T11:11:48;9.60;65.90
32139;DHT22;18644;48.700;9.210;2023-01-10T11:14:40;9.70;65.90
32139;DHT22;18644;48.700;9.210;2023-01-10T11:17:20;9.70;65.60
32139;DHT22;18644;48.700;9.210;2023-01-10T11:19:58;9.70;65.30
32139;DHT22;18644;48.700;9.210;2023-01-10T11:22:27;9.80;65.30
32139;DHT22;18644;48.700;9.210;2023-01-10T11:24:58;9.80;65.30
32139;DHT22;18644;48.700;9.210;2023-01-10T11:27:28;9.80;65.10
32139;DHT22;18644;48.700;9.210;2023-01-10T11:29:57;9.90;65.10
32139;DHT22;18644;48.700;9.210;2023-01-10T11:32:33;9.90;64.90
32139;DHT22;18644;48.700;9.210;2023-01-10T11:35:06;9.90;64.80
32139;DHT22;18644;48.700;9.210;2023-01-10T11:37:35;10.00;65.00
32139;DHT22;18644;48.700;9.210;2023-01-10T11:40:20;10.00;64.90
32139;DHT22;18644;48.700;9.210;2023-01-10T11:42:49;10.10;65.10
32139;DHT22;18644;48.700;9.210;2023-01-10T11:45:25;10.10;65.40
32139;DHT22;18644;48.700;9.210;2023-01-10T11:48:01;10.20;65.40
32139;DHT22;18644;48.700;9.210;2023-01-10T11:50:35;10.40;65.40
32139;DHT22;18644;48.700;9.210;2023-01-10T11:53:04;10.40;65.10
32139;DHT22;18644;48.700;9.210;2023-01-10T11:55:35;10.50;65.00
32139;DHT22;18644;48.700;9.210;2023-01-10T11:58:05;10.70;64.70
32139;DHT22;18644;48.700;9.210;2023-01-10T12:00:37;10.70;64.40
32139;DHT22;18644;48.700;9.210;2023-01-10T12:03:17;10.80;64.20
32139;DHT22;18644;48.700;9.210;2023-01-10T12:05:51;10.90;64.40
32139;DHT22;18644;48.700;9.210;2023-01-10T12:08:30;11.00;64.40
32139;DHT22;18644;48.700;9.210;2023-01-10T12:11:01;11.10;63.90
32139;DHT22;18644;48.700;9.210;2023-01-10T12:13:43;11.30;64.00
32139;DHT22;18644;48.700;9.210;2023-01-10T12:16:20;11.50;64.00
32139;DHT22;18644;48.700;9.210;2023-01-10T12:18:49;11.50;63.60
32139;DHT22;18644;48.700;9.210;2023-01-10T12:21:22;11.70;63.40
32139;DHT22;18644;48.700;9.210;2023-01-10T12:23:54;11.80;63.20
32139;DHT22;18644;48.700;9.210;2023-01-10T12:26:26;11.90;63.00
32139;DHT22;18644;48.700;9.210;2023-01-10T12:28:56;12.00;62.20
32139;DHT22;18644;48.700;9.210;2023-01-10T12:31:28;12.10;61.20
32139;DHT22;18644;48.700;9.210;2023-01-10T12:34:00;12.00;60.50
32139;DHT22;18644;48.700;9.210;2023-01-10T12:36:43;12.00;60.30
32139;DHT22;18644;48.700;9.210;2023-01-10T12:39:20;12.00;60.40
32139;DHT22;18644;48.700;9.210;2023-01-10T12:41:56;12.10;60.80
32139;DHT22;18644;48.700;9.210;2023-01-10T12:44:50;12.10;61.00
32139;DHT22;18644;48.700;9.210;2023-01-10T12:47:27;12.20;60.90
32139;DHT22;18644;48.700;9.210;2023-01-10T12:49:58;12.30;60.60
32139;DHT22;18644;48.700;9.210;2023-01-10T12:52:32;12.30;60.20
32139;DHT22;18644;48.700;9.210;2023-01-10T12:55:01;12.30;59.80
32139;DHT22;18644;48.700;9.210;2023-01-10T12:57:34;12.30;59.50
32139;DHT22;18644;48.700;9.210;2023-01-10T13:00:05;12.40;59.20
32139;DHT22;18644;48.700;9.210;2023-01-10T13:02:38;12.40;59.20
32139;DHT22;18644;48.700;9.210;2023-01-10T13:05:15;12.40;59.00
32139;DHT22;18644;48.700;9.210;2023-01-10T13:07:46;12.40;58.90
32139;DHT22;18644;48.700;9.210;2023-01-10T13:10:15;12.40;58.90
32139;DHT22;18644;48.700;9.210;2023-01-10T13:12:49;12.40;58.70
32139;DHT22;18644;48.700;9.210;2023-01-10T13:15:22;12.50;58.60
32139;DHT22;18644;48.700;9.210;2023-01-10T13:17:53;12.50;58.70
32139;DHT22;18644;48.700;9.210;2023-01-10T13:20:35;12.50;58.80
32139;DHT22;18644;48.700;9.210;2023-01-10T13:23:26;12.60;58.70
32139;DHT22;18644;48.700;9.210;2023-01-10T13:25:57;12.60;58.10
32139;DHT22;18644;48.700;9.210;2023-01-10T13:28:28;12.60;58.10
32139;DHT22;18644;48.700;9.210;2023-01-10T13:30:57;12.60;57.90
32139;DHT22;18644;48.700;9.210;2023-01-10T13:33:28;12.50;57.60
32139;DHT22;18644;48.700;9.210;2023-01-10T13:35:58;12.50;57.40
32139;DHT22;18644;48.700;9.210;2023-01-10T13:38:38;12.40;57.30
32139;DHT22;18644;48.700;9.210;2023-01-10T13:41:12;12.30;57.00
32139;DHT22;18644;48.700;9.210;2023-01-10T13:44:07;12.30;57.20
32139;DHT22;18644;48.700;9.210;2023-01-10T13:46:36;12.20;57.10
32139;DHT22;18644;48.700;9.210;2023-01-10T13:52:30;12.10;56.70
32139;DHT22;18644;48.700;9.210;2023-01-10T13:55:00;12.00;56.90
32139;DHT22;18644;48.700;9.210;2023-01-10T13:57:51;12.00;57.00
32139;DHT22;18644;48.700;9.210;2023-01-10T14:03:43;11.90;56.40
32139;DHT22;18644;48.700;9.210;2023-01-10T14:06:18;11.80;56.50
32139;DHT22;18644;48.700;9.210;2023-01-10T14:08:52;11.80;56.50
32139;DHT22;18644;48.700;9.210;2023-01-10T14:11:22;11.80;56.50
32139;DHT22;18644;48.700;9.210;2023-01-10T14:13:53;11.70;56.50
32139;DHT22;18644;48.700;9.210;2023-01-10T14:16:34;11.70;56.60
32139;DHT22;18644;48.700;9.210;2023-01-10T14:19:04;11.70;56.50
32139;DHT22;18644;48.700;9.210;2023-01-10T14:21:40;11.80;56.70
32139;DHT22;18644;48.700;9.210;2023-01-10T14:24:22;11.80;56.50
32139;DHT22;18644;48.700;9.210;2023-01-10T14:26:51;11.80;56.30
32139;DHT22;18644;48.700;9.210;2023-01-10T14:29:19;11.80;56.50
32139;DHT22;18644;48.700;9.210;2023-01-10T14:31:49;11.80;56.60
32139;DHT22;18644;48.700;9.210;2023-01-10T14:34:19;11.80;56.30
32139;DHT22;18644;48.700;9.210;2023-01-10T14:36:52;11.80;56.30
32139;DHT22;18644;48.700;9.210;2023-01-10T14:39:23;11.80;56.40
32139;DHT22;18644;48.700;9.210;2023-01-10T14:41:53;11.70;56.00
32139;DHT22;18644;48.700;9.210;2023-01-10T14:44:25;11.70;55.90
32139;DHT22;18644;48.700;9.210;2023-01-10T14:46:55;11.60;55.80
32139;DHT22;18644;48.700;9.210;2023-01-10T14:49:25;11.60;55.80
32139;DHT22;18644;48.700;9.210;2023-01-10T14:51:54;11.40;55.90
32139;DHT22;18644;48.700;9.210;2023-01-10T14:54:26;11.40;55.80
32139;DHT22;18644;48.700;9.210;2023-01-10T14:56:54;11.30;55.60
32139;DHT22;18644;48.700;9.210;2023-01-10T14:59:24;11.20;55.60
32139;DHT22;18644;48.700;9.210;2023-01-10T15:01:55;11.10;55.50
32139;DHT22;18644;48.700;9.210;2023-01-10T15:04:25;11.00;55.70
32139;DHT22;18644;48.700;9.210;2023-01-10T15:06:55;10.90;55.60
32139;DHT22;18644;48.700;9.210;2023-01-10T15:09:24;10.80;55.80
32139;DHT22;18644;48.700;9.210;2023-01-10T15:11:52;10.70;55.80
32139;DHT22;18644;48.700;9.210;2023-01-10T15:14:21;10.60;55.90
32139;DHT22;18644;48.700;9.210;2023-01-10T15:16:52;10.60;55.90
32139;DHT22;18644;48.700;9.210;2023-01-10T15:19:29;10.50;55.80
32139;DHT22;18644;48.700;9.210;2023-01-10T15:21:58;10.50;55.90
32139;DHT22;18644;48.700;9.210;2023-01-10T15:24:31;10.40;55.90
32139;DHT22;18644;48.700;9.210;2023-01-10T15:27:00;10.40;55.90
32139;DHT22;18644;48.700;9.210;2023-01-10T15:29:28;10.30;56.00
32139;DHT22;18644;48.700;9.210;2023-01-10T15:32:05;10.20;56.00
32139;DHT22;18644;48.700;9.210;2023-01-10T15:34:36;10.20;56.10
32139;DHT22;18644;48.700;9.210;2023-01-10T15:37:05;10.20;56.20
32139;DHT22;18644;48.700;9.210;2023-01-10T15:39:34;10.10;56.20
32139;DHT22;18644;48.700;9.210;2023-01-10T15:42:05;10.00;56.20
32139;DHT22;18644;48.700;9.210;2023-01-10T15:44:37;10.00;56.30
32139;DHT22;18644;48.700;9.210;2023-01-10T15:47:35;10.00;56.50
32139;DHT22;18644;48.700;9.210;2023-01-10T15:50:18;9.90;56.50
32139;DHT22;18644;48.700;9.210;2023-01-10T15:52:47;9.90;56.60
32139;DHT22;18644;48.700;9.210;2023-01-10T15:55:35;9.90;56.60
32139;DHT22;18644;48.700;9.210;2023-01-10T15:58:04;9.80;56.70
32139;DHT22;18644;48.700;9.210;2023-01-10T16:00:36;9.80;56.80
32139;DHT22;18644;48.700;9.210;2023-01-10T16:03:13;9.70;56.80
32139;DHT22;18644;48.700;9.210;2023-01-10T16:05:49;9.70;56.80
32139;DHT22;18644;48.700;9.210;2023-01-10T16:08:22;9.60;56.80
32139;DHT22;18644;48.700;9.210;2023-01-10T16:10:52;9.60;56.90
32139;DHT22;18644;48.700;9.210;2023-01-10T16:13:20;9.60;56.90
32139;DHT22;18644;48.700;9.210;2023-01-10T16:15:52;9.50;56.90
32139;DHT22;18644;48.700;9.210;2023-01-10T16:18:22;9.50;56.90
32139;DHT22;18644;48.700;9.210;2023-01-10T16:20:50;9.40;56.90